Time;durP1;ratioP1;P1;durP2;ratioP2;P2;SDS_P1;SDS_P2;PMS_P1;PMS_P2;Temp;Humidity;BMP_temperature;BMP_pressure;BME280_temperature;BME280_humidity;BME280_pressure;Samples;Min_cycle;Max_cycle;Signal;HPM_P1;HPM_P2
2023/01/11 00:00:04;;;;;;;;;;;18.10;66.50;;;;;;5053032;28;840;-72
2023/01/11 00:02:31;;;;;;;;;;;18.10;66.50;;;;;;5050331;28;2065;-72
2023/01/11 00:04:56;;;;;;;;;;;18.10;66.50;;;;;;5052273;28;1946;-72
2023/01/11 00:07:22;;;;;;;;;;;18.10;66.50;;;;;;5050163;28;1020;-72
2023/01/11 00:09:47;;;;;;;;;;;18.10;66.50;;;;;;5051386;28;975;-73
2023/01/11 00:12:13;;;;;;;;;;;18.10;66.50;;;;;;5055810;28;870;-71
2023/01/11 00:14:39;;;;;;;;;;;18.00;66.50;;;;;;5052178;28;911;-71
2023/01/11 00:17:04;;;;;;;;;;;18.10;66.60;;;;;;5054285;28;1257;-69
2023/01/11 00:19:30;;;;;;;;;;;18.10;66.60;;;;;;5057144;28;1006;-72
2023/01/11 00:21:55;;;;;;;;;;;18.00;66.50;;;;;;5053056;28;1165;-72
2023/01/11 00:24:21;;;;;;;;;;;18.00;66.60;;;;;;5052065;28;935;-69
2023/01/11 00:26:46;;;;;;;;;;;18.10;66.60;;;;;;5053428;28;1910;-70
2023/01/11 00:29:12;;;;;;;;;;;18.00;66.60;;;;;;5052969;28;871;-70
2023/01/11 00:31:37;;;;;;;;;;;18.00;66.60;;;;;;5052095;28;1589;-70
2023/01/11 00:34:03;;;;;;;;;;;18.00;66.60;;;;;;5053712;28;1005;-72
2023/01/11 00:36:28;;;;;;;;;;;18.00;66.60;;;;;;5046267;28;1393;-70
2023/01/11 00:38:54;;;;;;;;;;;18.00;66.60;;;;;;5063538;28;1407;-70
2023/01/11 00:49:32;;;;;;;;;;;18.00;66.70;;;;;;5052436;28;793;-71
2023/01/11 00:51:58;;;;;;;;;;;18.00;66.70;;;;;;5051275;28;903;-71
2023/01/11 00:54:23;;;;;;;;;;;18.00;66.70;;;;;;5048629;28;1133;-71
2023/01/11 00:56:49;;;;;;;;;;;18.00;66.70;;;;;;5052008;28;1377;-72
2023/01/11 00:59:14;;;;;;;;;;;18.00;66.70;;;;;;5052739;28;831;-71
2023/01/11 01:01:40;;;;;;;;;;;18.00;66.80;;;;;;5053415;28;909;-69
2023/01/11 01:04:05;;;;;;;;;;;18.00;67.40;;;;;;5052480;28;1291;-69
2023/01/11 01:06:30;;;;;;;;;;;18.00;66.70;;;;;;5053310;28;1906;-69
2023/01/11 01:08:56;;;;;;;;;;;18.00;66.80;;;;;;5055124;28;1587;-70
2023/01/11 01:11:21;;;;;;;;;;;18.00;66.70;;;;;;5052611;28;895;-69
2023/01/11 01:16:31;;;;;;;;;;;18.00;66.80;;;;;;5047528;28;1307;-71
2023/01/11 01:18:59;;;;;;;;;;;18.00;66.80;;;;;;5051312;28;923;-73
2023/01/11 01:21:25;;;;;;;;;;;17.90;66.70;;;;;;5051518;28;914;-69
2023/01/11 01:23:51;;;;;;;;;;;18.00;66.80;;;;;;5052428;28;891;-70
2023/01/11 01:26:16;;;;;;;;;;;18.00;66.80;;;;;;5052064;28;1937;-70
2023/01/11 01:28:42;;;;;;;;;;;18.00;66.80;;;;;;5051760;28;1335;-70
2023/01/11 01:31:07;;;;;;;;;;;18.00;66.80;;;;;;5053162;28;841;-70
2023/01/11 01:33:33;;;;;;;;;;;18.00;66.80;;;;;;5051872;28;1587;-70
2023/01/11 01:36:01;;;;;;;;;;;18.00;66.80;;;;;;5051158;28;1402;-70
2023/01/11 01:38:27;;;;;;;;;;;17.90;66.80;;;;;;5051551;28;792;-71
2023/01/11 01:40:52;;;;;;;;;;;18.00;66.90;;;;;;5051686;28;910;-70
2023/01/11 01:43:18;;;;;;;;;;;18.00;66.90;;;;;;5051826;28;843;-70
2023/01/11 01:45:43;;;;;;;;;;;18.00;66.90;;;;;;5051526;28;1953;-70
2023/01/11 01:48:10;;;;;;;;;;;18.00;66.90;;;;;;5042971;28;914;-70
2023/01/11 01:50:46;;;;;;;;;;;17.90;66.80;;;;;;5049850;28;833;-71
2023/01/11 01:53:12;;;;;;;;;;;17.90;66.80;;;;;;5048371;28;1018;-69
2023/01/11 01:55:38;;;;;;;;;;;17.90;66.90;;;;;;5048699;28;1262;-72
2023/01/11 01:58:04;;;;;;;;;;;17.90;66.90;;;;;;5055938;28;836;-71
2023/01/11 02:00:30;;;;;;;;;;;17.90;66.90;;;;;;5048351;28;864;-71
2023/01/11 02:02:56;;;;;;;;;;;18.00;66.90;;;;;;5048628;28;821;-72
2023/01/11 02:05:21;;;;;;;;;;;17.90;66.90;;;;;;5051042;28;1953;-71
2023/01/11 02:07:47;;;;;;;;;;;18.00;66.90;;;;;;5050844;28;828;-71
2023/01/11 02:10:14;;;;;;;;;;;17.90;66.90;;;;;;5054175;28;893;-72
2023/01/11 02:12:47;;;;;;;;;;;17.90;66.90;;;;;;5042899;28;795;-71
2023/01/11 02:15:13;;;;;;;;;;;17.90;67.00;;;;;;5052869;28;1214;-71
2023/01/11 02:17:38;;;;;;;;;;;17.90;66.90;;;;;;5054333;28;874;-71
2023/01/11 02:20:07;;;;;;;;;;;17.90;66.90;;;;;;5045316;28;846;-71
2023/01/11 02:22:38;;;;;;;;;;;17.90;66.90;;;;;;5057736;28;815;-71
2023/01/11 02:25:06;;;;;;;;;;;17.90;66.90;;;;;;5055007;28;1917;-70
2023/01/11 02:27:44;;;;;;;;;;;17.90;66.90;;;;;;5054237;28;1301;-70
2023/01/11 02:30:15;;;;;;;;;;;17.90;66.90;;;;;;5054516;28;989;-72
2023/01/11 02:32:59;;;;;;;;;;;17.90;66.90;;;;;;5049745;28;890;-70
2023/01/11 02:35:25;;;;;;;;;;;17.90;67.00;;;;;;5054129;28;1384;-69
2023/01/11 02:38:00;;;;;;;;;;;17.90;67.00;;;;;;5054091;28;859;-70
2023/01/11 02:40:32;;;;;;;;;;;17.90;67.00;;;;;;5056363;28;1553;-71
2023/01/11 02:46:03;;;;;;;;;;;17.90;67.00;;;;;;5052095;28;1901;-71
2023/01/11 02:48:48;;;;;;;;;;;17.90;67.00;;;;;;5053570;28;889;-71
2023/01/11 02:51:18;;;;;;;;;;;17.90;67.00;;;;;;5055172;28;867;-70
2023/01/11 02:53:58;;;;;;;;;;;17.90;67.00;;;;;;5055577;28;516;-70
2023/01/11 02:56:27;;;;;;;;;;;17.90;67.00;;;;;;5070657;28;1211;-70
2023/01/11 02:58:53;;;;;;;;;;;17.90;67.00;;;;;;5070808;28;878;-70
2023/01/11 03:01:21;;;;;;;;;;;17.90;67.10;;;;;;5060189;28;863;-70
2023/01/11 03:03:47;;;;;;;;;;;17.90;67.00;;;;;;5055445;28;1243;-69
2023/01/11 03:06:14;;;;;;;;;;;17.90;67.10;;;;;;5049940;28;1971;-70
2023/01/11 03:08:43;;;;;;;;;;;17.90;67.30;;;;;;5046057;28;895;-70
2023/01/11 03:12:50;;;;;;;;;;;17.90;67.00;;;;;;5051469;28;854;-70
2023/01/11 03:14:06;;;;;;;;;;;17.90;67.10;;;;;;5050544;28;1193;-70
2023/01/11 03:16:50;;;;;;;;;;;17.90;67.00;;;;;;5052326;28;1209;-72
2023/01/11 03:19:28;;;;;;;;;;;17.90;67.10;;;;;;5052938;28;824;-70
2023/01/11 03:21:58;;;;;;;;;;;17.90;67.10;;;;;;5050374;28;1620;-69
2023/01/11 03:24:42;;;;;;;;;;;17.80;67.00;;;;;;5052665;28;1438;-70
2023/01/11 03:27:09;;;;;;;;;;;17.90;67.10;;;;;;5055323;28;1972;-71
2023/01/11 03:29:47;;;;;;;;;;;17.90;67.10;;;;;;5048138;28;1351;-68
2023/01/11 03:32:12;;;;;;;;;;;17.80;67.00;;;;;;5056241;28;1819;-71
2023/01/11 03:34:49;;;;;;;;;;;17.90;67.10;;;;;;5049751;28;1259;-69
2023/01/11 03:37:19;;;;;;;;;;;17.90;67.10;;;;;;5056106;28;1196;-71
2023/01/11 03:39:46;;;;;;;;;;;17.90;67.10;;;;;;5049775;28;848;-70
2023/01/11 03:42:12;;;;;;;;;;;17.90;67.10;;;;;;5055054;28;808;-69
2023/01/11 03:44:39;;;;;;;;;;;17.80;67.00;;;;;;5057622;28;1745;-69
2023/01/11 03:47:05;;;;;;;;;;;17.80;67.10;;;;;;5048965;28;1898;-71
2023/01/11 03:49:39;;;;;;;;;;;17.80;67.10;;;;;;5040286;28;1186;-70
2023/01/11 03:52:04;;;;;;;;;;;17.90;67.20;;;;;;5049314;28;1022;-70
2023/01/11 03:54:30;;;;;;;;;;;17.80;67.10;;;;;;5053088;28;800;-69
2023/01/11 03:56:55;;;;;;;;;;;17.80;67.10;;;;;;5056944;28;1228;-72
2023/01/11 03:59:21;;;;;;;;;;;17.80;67.10;;;;;;5054982;28;852;-69
2023/01/11 04:01:46;;;;;;;;;;;17.90;67.20;;;;;;5045712;28;1066;-69
2023/01/11 04:04:11;;;;;;;;;;;17.80;67.10;;;;;;5051465;28;1277;-70
2023/01/11 04:06:38;;;;;;;;;;;17.80;67.10;;;;;;5052466;28;1980;-69
2023/01/11 04:09:03;;;;;;;;;;;17.80;67.10;;;;;;5043695;28;859;-69
2023/01/11 04:11:29;;;;;;;;;;;17.80;67.10;;;;;;5053479;28;1232;-69
2023/01/11 04:13:54;;;;;;;;;;;17.80;67.10;;;;;;5053047;28;771;-69
2023/01/11 04:16:20;;;;;;;;;;;17.80;67.10;;;;;;5052082;28;1263;-71
2023/01/11 04:18:45;;;;;;;;;;;17.80;67.10;;;;;;5053460;28;969;-69
2023/01/11 04:21:11;;;;;;;;;;;17.80;67.90;;;;;;5053714;28;1159;-70
2023/01/11 04:23:36;;;;;;;;;;;17.80;67.10;;;;;;5055315;28;875;-70
2023/01/11 04:26:01;;;;;;;;;;;17.80;67.20;;;;;;5053665;28;1909;-68
2023/01/11 04:28:27;;;;;;;;;;;17.80;67.10;;;;;;5052296;28;1377;-69
2023/01/11 04:30:52;;;;;;;;;;;17.80;67.10;;;;;;5049827;28;1073;-72
2023/01/11 04:33:18;;;;;;;;;;;17.80;67.10;;;;;;5057341;28;884;-68
2023/01/11 04:35:44;;;;;;;;;;;17.80;67.20;;;;;;5053033;28;1397;-68
2023/01/11 04:38:09;;;;;;;;;;;17.80;67.20;;;;;;5045501;28;859;-70
2023/01/11 04:40:34;;;;;;;;;;;17.80;67.10;;;;;;5054647;28;1045;-71
2023/01/11 04:43:01;;;;;;;;;;;17.80;67.10;;;;;;5055411;28;915;-68
2023/01/11 04:45:27;;;;;;;;;;;17.80;67.10;;;;;;5052175;28;1914;-69
2023/01/11 04:47:55;;;;;;;;;;;17.80;67.20;;;;;;5055362;28;1062;-68
2023/01/11 04:50:21;;;;;;;;;;;17.80;67.20;;;;;;5054035;28;1295;-69
2023/01/11 04:52:47;;;;;;;;;;;17.80;67.20;;;;;;5057174;28;922;-69
2023/01/11 04:55:12;;;;;;;;;;;17.80;67.20;;;;;;5054842;28;1235;-69
2023/01/11 04:57:37;;;;;;;;;;;17.80;67.20;;;;;;5052019;28;989;-70
2023/01/11 05:00:09;;;;;;;;;;;17.80;67.20;;;;;;5051199;28;1074;-69
2023/01/11 05:02:35;;;;;;;;;;;17.80;67.20;;;;;;5051659;28;902;-69
2023/01/11 05:05:01;;;;;;;;;;;17.80;67.20;;;;;;5051633;28;1967;-70
2023/01/11 05:07:27;;;;;;;;;;;17.80;67.20;;;;;;5043698;28;899;-70
2023/01/11 05:09:52;;;;;;;;;;;17.80;67.90;;;;;;5052031;28;792;-70
2023/01/11 05:12:17;;;;;;;;;;;17.80;67.10;;;;;;5053329;28;871;-69
2023/01/11 05:14:43;;;;;;;;;;;17.90;67.00;;;;;;5050297;28;1012;-69
2023/01/11 05:17:11;;;;;;;;;;;17.90;66.90;;;;;;5050863;28;1409;-69
2023/01/11 05:19:37;;;;;;;;;;;17.90;66.80;;;;;;5052439;28;824;-69
2023/01/11 05:22:02;;;;;;;;;;;18.00;66.70;;;;;;5051535;28;855;-69
2023/01/11 05:24:27;;;;;;;;;;;18.00;66.50;;;;;;5051735;28;978;-69
2023/01/11 05:26:53;;;;;;;;;;;18.10;66.40;;;;;;5050333;28;1973;-70
2023/01/11 05:29:20;;;;;;;;;;;18.10;66.20;;;;;;5053147;28;1280;-69
2023/01/11 05:31:45;;;;;;;;;;;18.10;66.10;;;;;;5052650;28;887;-69
2023/01/11 05:34:11;;;;;;;;;;;18.20;66.00;;;;;;5050243;28;1131;-70
2023/01/11 05:36:36;;;;;;;;;;;18.20;65.90;;;;;;5047798;28;1785;-68
2023/01/11 05:39:02;;;;;;;;;;;18.20;65.70;;;;;;5049869;28;1064;-69
2023/01/11 05:41:28;;;;;;;;;;;18.30;65.60;;;;;;5051331;28;871;-69
2023/01/11 05:46:38;;;;;;;;;;;18.30;65.50;;;;;;5048600;28;1987;-71
2023/01/11 05:49:03;;;;;;;;;;;18.30;65.40;;;;;;5057929;28;857;-69
2023/01/11 05:51:29;;;;;;;;;;;18.30;65.30;;;;;;5051816;28;876;-69
2023/01/11 05:53:55;;;;;;;;;;;18.40;65.30;;;;;;5060103;28;823;-69
2023/01/11 05:56:20;;;;;;;;;;;18.40;65.20;;;;;;5057999;28;1231;-68
2023/01/11 05:58:46;;;;;;;;;;;18.40;65.20;;;;;;5056126;28;1006;-70
2023/01/11 06:01:12;;;;;;;;;;;18.40;65.10;;;;;;5055259;28;961;-71
2023/01/11 06:03:37;;;;;;;;;;;18.40;65.10;;;;;;5056695;28;949;-69
2023/01/11 06:06:03;;;;;;;;;;;18.40;65.10;;;;;;5055764;28;1879;-69
2023/01/11 06:08:28;;;;;;;;;;;18.40;65.00;;;;;;5055074;28;800;-70
2023/01/11 06:10:54;;;;;;;;;;;18.40;65.00;;;;;;5058892;28;883;-69
2023/01/11 06:13:25;;;;;;;;;;;18.40;64.90;;;;;;5053961;28;903;-69
2023/01/11 06:15:56;;;;;;;;;;;18.40;64.90;;;;;;5050818;28;1364;-70
2023/01/11 06:18:22;;;;;;;;;;;18.50;65.00;;;;;;5053870;28;982;-69
2023/01/11 06:20:50;;;;;;;;;;;18.50;64.90;;;;;;5055419;28;902;-69
2023/01/11 06:23:16;;;;;;;;;;;18.50;64.90;;;;;;5054742;28;804;-69
2023/01/11 06:25:41;;;;;;;;;;;18.50;64.80;;;;;;5055162;28;1906;-70
2023/01/11 06:28:07;;;;;;;;;;;18.50;64.80;;;;;;5057736;28;824;-70
2023/01/11 06:30:32;;;;;;;;;;;18.50;64.80;;;;;;5057612;28;949;-68
2023/01/11 06:33:04;;;;;;;;;;;18.50;64.80;;;;;;5054766;28;998;-69
2023/01/11 06:35:36;;;;;;;;;;;18.50;64.80;;;;;;5060980;28;1341;-69
2023/01/11 06:38:01;;;;;;;;;;;18.50;64.80;;;;;;5052338;28;910;-71
2023/01/11 06:40:27;;;;;;;;;;;18.50;64.80;;;;;;5054577;28;846;-72
2023/01/11 06:42:53;;;;;;;;;;;18.50;64.70;;;;;;5053563;28;945;-71
2023/01/11 06:45:18;;;;;;;;;;;18.50;64.80;;;;;;5055382;28;1947;-71
2023/01/11 06:47:43;;;;;;;;;;;18.50;64.80;;;;;;5052905;28;845;-71
2023/01/11 06:50:09;;;;;;;;;;;18.50;64.80;;;;;;5054050;28;841;-71
2023/01/11 06:52:35;;;;;;;;;;;18.50;64.80;;;;;;5054725;28;899;-71
2023/01/11 06:55:01;;;;;;;;;;;18.50;64.80;;;;;;5053845;28;1299;-71
2023/01/11 06:57:27;;;;;;;;;;;18.50;64.80;;;;;;5052919;28;900;-71
2023/01/11 06:59:53;;;;;;;;;;;18.50;64.80;;;;;;5055681;28;922;-73
2023/01/11 07:02:18;;;;;;;;;;;18.50;64.80;;;;;;5049951;28;1885;-70
2023/01/11 07:04:43;;;;;;;;;;;18.50;64.80;;;;;;5050856;28;1968;-69
2023/01/11 07:07:09;;;;;;;;;;;18.50;64.80;;;;;;5052897;28;1997;-69
2023/01/11 07:09:34;;;;;;;;;;;18.50;64.80;;;;;;5055670;28;1320;-69
2023/01/11 07:12:00;;;;;;;;;;;18.50;64.80;;;;;;5054160;28;1017;-68
2023/01/11 07:14:25;;;;;;;;;;;18.50;64.90;;;;;;5055163;28;927;-67
2023/01/11 07:16:51;;;;;;;;;;;18.50;64.90;;;;;;5054033;28;1213;-67
2023/01/11 07:19:17;;;;;;;;;;;18.50;64.90;;;;;;5053612;28;905;-67
2023/01/11 07:21:42;;;;;;;;;;;18.40;64.80;;;;;;5052943;28;830;-67
2023/01/11 07:24:08;;;;;;;;;;;18.40;64.90;;;;;;5043222;28;915;-68
2023/01/11 07:26:39;;;;;;;;;;;18.40;64.90;;;;;;5054287;28;1967;-68
2023/01/11 07:29:05;;;;;;;;;;;18.40;64.90;;;;;;5055299;28;1418;-68
2023/01/11 07:31:31;;;;;;;;;;;18.40;64.90;;;;;;5053754;28;1477;-68
2023/01/11 07:33:56;;;;;;;;;;;18.40;64.90;;;;;;5054335;28;1195;-68
2023/01/11 07:36:22;;;;;;;;;;;18.40;65.00;;;;;;5053574;28;1396;-68
2023/01/11 07:38:47;;;;;;;;;;;18.40;65.00;;;;;;5054192;28;2093;-68
2023/01/11 07:43:56;;;;;;;;;;;18.40;65.00;;;;;;5052240;28;1295;-70
2023/01/11 07:46:22;;;;;;;;;;;18.40;65.10;;;;;;5050660;28;2432;-69
2023/01/11 07:48:47;;;;;;;;;;;18.40;65.10;;;;;;5053023;28;1745;-71
2023/01/11 07:51:15;;;;;;;;;;;18.40;65.10;;;;;;5053835;28;1311;-71
2023/01/11 07:53:40;;;;;;;;;;;18.40;65.10;;;;;;5050971;28;1072;-70
2023/01/11 07:56:06;;;;;;;;;;;18.40;65.10;;;;;;5052091;28;1386;-70
2023/01/11 07:58:31;;;;;;;;;;;18.40;65.20;;;;;;5052381;28;833;-70
2023/01/11 08:01:00;;;;;;;;;;;18.40;66.00;;;;;;5055742;28;903;-70
2023/01/11 08:03:25;;;;;;;;;;;18.30;65.20;;;;;;5048526;28;969;-70
2023/01/11 08:05:51;;;;;;;;;;;18.30;65.10;;;;;;5051584;28;1901;-71
2023/01/11 08:08:16;;;;;;;;;;;18.30;65.20;;;;;;5052130;28;882;-71
2023/01/11 08:10:42;;;;;;;;;;;18.30;65.20;;;;;;5052217;28;818;-70
2023/01/11 08:15:52;;;;;;;;;;;18.30;65.20;;;;;;5044678;28;1259;-70
2023/01/11 08:18:18;;;;;;;;;;;18.30;65.20;;;;;;5054021;28;943;-71
2023/01/11 08:20:44;;;;;;;;;;;18.30;65.20;;;;;;5052408;28;1087;-70
2023/01/11 08:23:10;;;;;;;;;;;18.30;65.20;;;;;;5054182;28;843;-70
2023/01/11 08:25:35;;;;;;;;;;;18.40;65.20;;;;;;5052144;28;1971;-70
2023/01/11 08:28:01;;;;;;;;;;;18.30;65.20;;;;;;5053998;28;1308;-71
2023/01/11 08:30:27;;;;;;;;;;;18.40;65.20;;;;;;5049147;28;816;-70
2023/01/11 08:32:52;;;;;;;;;;;18.30;65.10;;;;;;5052676;28;883;-69
2023/01/11 08:35:18;;;;;;;;;;;18.40;65.10;;;;;;5051686;28;1318;-69
2023/01/11 08:37:43;;;;;;;;;;;18.40;65.10;;;;;;5051743;28;855;-70
2023/01/11 08:40:09;;;;;;;;;;;18.40;65.10;;;;;;5051602;28;860;-69
2023/01/11 08:42:34;;;;;;;;;;;18.40;65.10;;;;;;5053144;28;806;-70
2023/01/11 08:45:00;;;;;;;;;;;18.40;65.10;;;;;;5038635;28;1359;-68
2023/01/11 08:47:26;;;;;;;;;;;18.40;65.10;;;;;;5052311;28;1965;-69
2023/01/11 08:49:51;;;;;;;;;;;18.40;65.10;;;;;;5053097;28;847;-69
2023/01/11 08:52:17;;;;;;;;;;;18.40;65.00;;;;;;5053987;28;800;-69
2023/01/11 08:54:43;;;;;;;;;;;18.40;65.00;;;;;;5052696;28;872;-69
2023/01/11 08:57:08;;;;;;;;;;;18.40;65.00;;;;;;5053486;28;1418;-70
2023/01/11 08:59:34;;;;;;;;;;;18.40;65.00;;;;;;5050846;28;915;-70
2023/01/11 09:02:00;;;;;;;;;;;18.40;65.00;;;;;;5051782;28;880;-70
2023/01/11 09:04:25;;;;;;;;;;;18.40;65.10;;;;;;5051965;28;1273;-70
2023/01/11 09:06:51;;;;;;;;;;;18.40;65.10;;;;;;5051696;28;1898;-69
2023/01/11 09:09:17;;;;;;;;;;;18.40;65.10;;;;;;5054907;28;993;-70
2023/01/11 09:11:59;;;;;;;;;;;18.40;65.10;;;;;;5048371;28;814;-70
2023/01/11 09:14:25;;;;;;;;;;;18.40;65.10;;;;;;5049832;28;866;-70
2023/01/11 09:16:51;;;;;;;;;;;18.40;65.20;;;;;;5052220;28;1282;-70
2023/01/11 09:19:16;;;;;;;;;;;18.40;65.20;;;;;;5051838;28;1002;-70
2023/01/11 09:21:44;;;;;;;;;;;18.30;65.10;;;;;;5053348;28;914;-70
2023/01/11 09:24:09;;;;;;;;;;;18.40;65.20;;;;;;5054680;28;866;-70
2023/01/11 09:26:36;;;;;;;;;;;18.40;65.20;;;;;;5055106;28;1894;-70
2023/01/11 09:29:01;;;;;;;;;;;18.40;65.20;;;;;;5055371;28;1370;-70
2023/01/11 09:31:27;;;;;;;;;;;18.40;65.20;;;;;;5058910;28;1590;-70
2023/01/11 09:33:52;;;;;;;;;;;18.40;65.20;;;;;;5056372;28;804;-70
2023/01/11 09:36:20;;;;;;;;;;;18.40;65.20;;;;;;5055886;28;1240;-71
2023/01/11 09:38:49;;;;;;;;;;;18.30;65.10;;;;;;5057321;28;1212;-71
2023/01/11 09:41:23;;;;;;;;;;;18.40;65.20;;;;;;5055579;28;828;-70
2023/01/11 09:43:55;;;;;;;;;;;18.40;65.20;;;;;;5055702;28;864;-70
2023/01/11 09:46:20;;;;;;;;;;;18.40;65.20;;;;;;5055639;28;1898;-71
2023/01/11 09:48:47;;;;;;;;;;;18.40;65.20;;;;;;5050906;28;922;-70
2023/01/11 09:51:18;;;;;;;;;;;18.40;65.10;;;;;;5050971;28;974;-70
2023/01/11 09:53:48;;;;;;;;;;;18.40;65.10;;;;;;5054914;28;903;-71
2023/01/11 09:56:14;;;;;;;;;;;18.40;65.10;;;;;;5057493;28;1244;-71
2023/01/11 09:59:19;;;;;;;;;;;18.40;65.10;;;;;;5057587;28;903;-70
2023/01/11 10:01:49;;;;;;;;;;;18.40;65.10;;;;;;5056063;28;1238;-69
2023/01/11 10:04:36;;;;;;;;;;;18.40;65.00;;;;;;5046202;28;1301;-68
2023/01/11 10:07:14;;;;;;;;;;;18.40;65.10;;;;;;5054938;28;1961;-70
2023/01/11 10:09:58;;;;;;;;;;;18.40;65.00;;;;;;5054658;28;847;-69
2023/01/11 10:12:33;;;;;;;;;;;18.40;65.00;;;;;;5057314;28;1025;-70
2023/01/11 10:15:03;;;;;;;;;;;18.40;64.90;;;;;;5050894;28;1271;-71
2023/01/11 10:17:29;;;;;;;;;;;18.40;64.90;;;;;;5055704;28;862;-71
2023/01/11 10:20:00;;;;;;;;;;;18.40;64.90;;;;;;5054328;28;844;-71
2023/01/11 10:22:30;;;;;;;;;;;18.50;64.90;;;;;;5056832;28;818;-71
2023/01/11 10:25:00;;;;;;;;;;;18.40;64.80;;;;;;5049051;28;1961;-70
2023/01/11 10:27:32;;;;;;;;;;;18.50;64.90;;;;;;5053102;28;1898;-70
2023/01/11 10:30:32;;;;;;;;;;;18.50;64.80;;;;;;5049784;28;1299;-70
2023/01/11 10:39:14;;;;;;;;;;;18.50;64.80;;;;;;5049889;28;859;-69
2023/01/11 10:41:53;;;;;;;;;;;18.50;64.80;;;;;;5050919;28;840;-70
2023/01/11 10:44:33;;;;;;;;;;;18.50;64.80;;;;;;5063275;28;848;-71
2023/01/11 10:46:58;;;;;;;;;;;18.50;64.70;;;;;;5064544;28;1972;-69
2023/01/11 10:49:27;;;;;;;;;;;18.50;64.70;;;;;;5060865;28;852;-68
2023/01/11 10:51:54;;;;;;;;;;;18.50;64.70;;;;;;5075429;28;854;-69
2023/01/11 10:54:25;;;;;;;;;;;18.50;64.70;;;;;;5056071;28;1016;-69
2023/01/11 10:57:12;;;;;;;;;;;18.50;64.70;;;;;;5053976;28;1352;-69
2023/01/11 10:59:50;;;;;;;;;;;18.50;64.80;;;;;;5055162;28;894;-71
2023/01/11 11:02:18;;;;;;;;;;;18.50;64.70;;;;;;5065784;28;902;-70
2023/01/11 11:05:00;;;;;;;;;;;18.50;64.70;;;;;;5053854;28;905;-71
2023/01/11 11:07:33;;;;;;;;;;;18.50;64.70;;;;;;5053832;28;1969;-71
2023/01/11 11:10:13;;;;;;;;;;;18.50;64.70;;;;;;5054941;28;907;-71
2023/01/11 11:12:40;;;;;;;;;;;18.50;64.70;;;;;;5052872;28;1039;-70
2023/01/11 11:15:12;;;;;;;;;;;18.50;64.70;;;;;;5050896;28;1304;-70
2023/01/11 11:17:38;;;;;;;;;;;18.50;64.70;;;;;;5054439;28;853;-70
2023/01/11 11:20:14;;;;;;;;;;;18.50;64.70;;;;;;5049993;28;851;-70
2023/01/11 11:22:39;;;;;;;;;;;18.50;64.70;;;;;;5051896;28;1120;-70
2023/01/11 11:25:12;;;;;;;;;;;18.50;64.80;;;;;;5051358;28;1327;-70
2023/01/11 11:27:43;;;;;;;;;;;18.50;64.70;;;;;;5047913;28;1953;-70
2023/01/11 11:30:10;;;;;;;;;;;18.50;64.70;;;;;;5045772;28;824;-70
2023/01/11 11:32:36;;;;;;;;;;;18.50;64.70;;;;;;5054677;28;962;-70
2023/01/11 11:35:02;;;;;;;;;;;18.50;64.80;;;;;;5051350;28;1284;-70
2023/01/11 11:37:32;;;;;;;;;;;18.50;64.80;;;;;;5048531;28;819;-70
2023/01/11 11:39:57;;;;;;;;;;;18.50;64.80;;;;;;5049115;28;829;-70
2023/01/11 11:42:23;;;;;;;;;;;18.50;64.80;;;;;;5054294;28;921;-70
2023/01/11 11:45:07;;;;;;;;;;;18.50;64.80;;;;;;5050795;28;839;-70
2023/01/11 11:47:32;;;;;;;;;;;18.50;64.80;;;;;;5054180;28;1914;-70
2023/01/11 11:50:17;;;;;;;;;;;18.50;64.80;;;;;;5046560;28;872;-70
2023/01/11 11:52:42;;;;;;;;;;;18.50;64.90;;;;;;5052732;28;860;-70
2023/01/11 11:55:08;;;;;;;;;;;18.50;64.90;;;;;;5051101;28;1338;-70
2023/01/11 11:57:35;;;;;;;;;;;18.50;64.90;;;;;;5052655;28;1001;-70
2023/01/11 12:00:05;;;;;;;;;;;18.50;64.90;;;;;;5047766;28;870;-70
2023/01/11 12:02:31;;;;;;;;;;;18.50;64.90;;;;;;5044069;28;880;-70
2023/01/11 12:04:57;;;;;;;;;;;18.50;64.90;;;;;;5044681;28;1282;-70
2023/01/11 12:07:33;;;;;;;;;;;18.50;64.90;;;;;;5044243;28;2130;-71
2023/01/11 12:09:59;;;;;;;;;;;18.40;64.90;;;;;;5052500;28;1456;-69
2023/01/11 12:12:24;;;;;;;;;;;18.40;64.90;;;;;;5050829;28;809;-70
2023/01/11 12:15:05;;;;;;;;;;;18.40;64.90;;;;;;5050460;28;930;-70
2023/01/11 12:17:31;;;;;;;;;;;18.40;64.90;;;;;;5051273;28;890;-70
2023/01/11 12:19:56;;;;;;;;;;;18.40;64.90;;;;;;5050982;28;934;-70
2023/01/11 12:22:22;;;;;;;;;;;18.40;65.00;;;;;;5051639;28;1042;-70
2023/01/11 12:25:06;;;;;;;;;;;18.40;65.00;;;;;;5043429;28;860;-70
2023/01/11 12:27:50;;;;;;;;;;;18.40;65.00;;;;;;5033801;28;1959;-70
2023/01/11 12:30:28;;;;;;;;;;;18.40;65.00;;;;;;5050653;28;1237;-70
2023/01/11 12:33:06;;;;;;;;;;;18.40;65.00;;;;;;5051783;28;1238;-70
2023/01/11 12:35:38;;;;;;;;;;;18.50;65.00;;;;;;5041801;28;1263;-70
2023/01/11 12:38:16;;;;;;;;;;;18.50;64.90;;;;;;5042866;28;1022;-68
2023/01/11 12:40:41;;;;;;;;;;;18.50;64.90;;;;;;5047051;28;851;-70
2023/01/11 12:43:22;;;;;;;;;;;18.50;64.80;;;;;;5055693;28;870;-69
2023/01/11 12:45:48;;;;;;;;;;;18.50;64.70;;;;;;5049740;28;1930;-69
2023/01/11 12:48:17;;;;;;;;;;;18.50;64.60;;;;;;5052663;28;998;-69
2023/01/11 12:50:52;;;;;;;;;;;18.60;64.60;;;;;;5052314;28;760;-69
2023/01/11 12:53:36;;;;;;;;;;;18.60;64.50;;;;;;5039332;28;1527;-69
2023/01/11 12:56:07;;;;;;;;;;;18.60;64.40;;;;;;5066693;28;1305;-69
2023/01/11 12:58:34;;;;;;;;;;;18.60;64.40;;;;;;5052322;28;894;-69
2023/01/11 13:01:15;;;;;;;;;;;18.60;64.30;;;;;;5044482;28;1014;-69
2023/01/11 13:03:41;;;;;;;;;;;18.60;64.30;;;;;;5058194;28;846;-69
2023/01/11 13:06:21;;;;;;;;;;;18.60;64.30;;;;;;5053137;28;1910;-71
2023/01/11 13:08:55;;;;;;;;;;;18.60;64.30;;;;;;5052888;28;1039;-69
2023/01/11 13:11:35;;;;;;;;;;;18.60;64.30;;;;;;5055056;28;848;-69
2023/01/11 13:14:02;;;;;;;;;;;18.60;64.20;;;;;;5054150;28;894;-71
2023/01/11 13:16:30;;;;;;;;;;;18.60;64.20;;;;;;5042666;28;1278;-69
2023/01/11 13:18:59;;;;;;;;;;;18.60;64.20;;;;;;5050470;28;868;-69
2023/01/11 13:21:34;;;;;;;;;;;18.60;64.20;;;;;;5055084;28;851;-68
2023/01/11 13:24:09;;;;;;;;;;;18.70;64.20;;;;;;5047183;28;808;-70
2023/01/11 13:26:35;;;;;;;;;;;18.60;64.20;;;;;;5051888;28;2005;-69
2023/01/11 13:29:02;;;;;;;;;;;18.70;64.20;;;;;;5040031;28;870;-69
2023/01/11 13:31:28;;;;;;;;;;;18.70;64.20;;;;;;5046560;28;896;-71
2023/01/11 13:33:55;;;;;;;;;;;18.60;64.20;;;;;;5050254;28;801;-69
2023/01/11 13:36:23;;;;;;;;;;;18.60;64.10;;;;;;5057203;28;1347;-69
2023/01/11 13:39:07;;;;;;;;;;;18.60;64.10;;;;;;5048676;28;856;-69
2023/01/11 13:41:40;;;;;;;;;;;18.60;64.10;;;;;;5037302;28;938;-69
2023/01/11 13:44:10;;;;;;;;;;;18.60;64.20;;;;;;5048799;28;883;-69
2023/01/11 13:46:39;;;;;;;;;;;18.60;64.10;;;;;;5046212;28;1882;-69
2023/01/11 13:49:07;;;;;;;;;;;18.60;64.10;;;;;;5046691;28;935;-69
2023/01/11 13:51:38;;;;;;;;;;;18.60;64.20;;;;;;5055177;28;819;-71
2023/01/11 13:54:07;;;;;;;;;;;18.60;64.20;;;;;;5038507;28;1014;-69
2023/01/11 13:56:33;;;;;;;;;;;18.60;64.60;;;;;;5055183;28;1270;-69
2023/01/11 13:59:04;;;;;;;;;;;18.60;64.30;;;;;;5046168;28;796;-70
2023/01/11 14:01:49;;;;;;;;;;;18.60;64.20;;;;;;5017993;28;856;-69
2023/01/11 14:04:16;;;;;;;;;;;18.60;64.30;;;;;;5054494;28;808;-69
2023/01/11 14:07:01;;;;;;;;;;;18.60;64.30;;;;;;5036479;28;1989;-69
2023/01/11 14:09:36;;;;;;;;;;;18.60;64.30;;;;;;5056692;28;808;-68
2023/01/11 14:12:06;;;;;;;;;;;18.60;64.40;;;;;;5056156;28;831;-69
2023/01/11 14:14:35;;;;;;;;;;;18.60;65.10;;;;;;5054148;28;1018;-72
2023/01/11 14:17:04;;;;;;;;;;;18.60;64.40;;;;;;5058396;28;1179;-69
2023/01/11 14:19:33;;;;;;;;;;;18.60;64.50;;;;;;5056393;28;836;-69
2023/01/11 14:22:01;;;;;;;;;;;18.60;64.50;;;;;;5053118;28;1042;-70
2023/01/11 14:24:27;;;;;;;;;;;18.50;64.40;;;;;;5054785;28;1022;-70
2023/01/11 14:26:55;;;;;;;;;;;18.50;64.50;;;;;;5056653;28;1902;-69
2023/01/11 14:29:42;;;;;;;;;;;18.50;64.60;;;;;;5058147;28;876;-69
2023/01/11 14:32:11;;;;;;;;;;;18.50;64.60;;;;;;5051064;28;840;-71
2023/01/11 14:34:42;;;;;;;;;;;18.50;64.60;;;;;;5054815;28;1275;-71
2023/01/11 14:37:13;;;;;;;;;;;18.50;65.40;;;;;;5056624;28;1242;-71
2023/01/11 14:39:43;;;;;;;;;;;18.50;64.70;;;;;;5042675;28;1439;-71
2023/01/11 14:42:28;;;;;;;;;;;18.50;64.70;;;;;;5046479;28;1588;-71
2023/01/11 14:45:03;;;;;;;;;;;18.50;64.70;;;;;;5053432;28;1139;-72
2023/01/11 14:47:43;;;;;;;;;;;18.50;64.80;;;;;;5056688;28;1971;-71
2023/01/11 14:50:08;;;;;;;;;;;18.50;64.80;;;;;;5050657;28;899;-68
2023/01/11 14:52:34;;;;;;;;;;;18.50;64.80;;;;;;5053922;28;896;-71
2023/01/11 14:55:01;;;;;;;;;;;18.50;64.90;;;;;;5054330;28;1249;-71
2023/01/11 14:57:39;;;;;;;;;;;18.50;64.90;;;;;;5052552;28;816;-71
2023/01/11 15:00:17;;;;;;;;;;;18.50;64.90;;;;;;5051967;28;824;-69
2023/01/11 15:02:42;;;;;;;;;;;18.50;64.90;;;;;;5055037;28;974;-70
2023/01/11 15:05:08;;;;;;;;;;;18.50;65.00;;;;;;5048776;28;1662;-70
2023/01/11 15:07:35;;;;;;;;;;;18.40;64.90;;;;;;5043808;28;1926;-70
2023/01/11 15:10:03;;;;;;;;;;;18.40;64.90;;;;;;5055496;28;849;-71
2023/01/11 15:12:32;;;;;;;;;;;18.40;65.70;;;;;;5055964;28;824;-71